Time;durP1;ratioP1;P1;durP2;ratioP2;P2;SDS_P1;SDS_P2;PMS_P1;PMS_P2;Temp;Humidity;BMP_temperature;BMP_pressure;BME280_temperature;BME280_humidity;BME280_pressure;Samples;Min_cycle;Max_cycle;Signal;HPM_P1;HPM_P2
2021/03/01 00:04:36;;;;;;;7.90;4.90;;;;;;;4.29;81.09;102567.19;4820654;59;1136364;-80
2021/03/01 00:09:41;;;;;;;12.40;5.00;;;;;;;4.29;80.87;102566.32;4820658;59;1134753;-79
2021/03/01 00:14:47;;;;;;;13.07;5.67;;;;;;;4.15;80.66;102558.72;4805469;59;1136490;-79
2021/03/01 00:19:52;;;;;;;15.37;6.03;;;;;;;4.06;80.84;102561.52;4783130;59;1136493;-79
2021/03/01 00:24:58;;;;;;;13.53;5.50;;;;;;;4.03;80.99;102553.71;4782985;60;1136701;-79
2021/03/01 00:30:05;;;;;;;12.60;5.83;;;;;;;4.03;80.97;102560.26;4785336;60;1136783;-80
2021/03/01 00:35:12;;;;;;;13.40;5.12;;;;;;;3.98;81.00;102547.24;4783386;60;1136604;-80
2021/03/01 00:40:18;;;;;;;14.78;4.58;;;;;;;3.94;80.85;102550.83;4785190;59;1136663;-80
2021/03/01 00:45:23;;;;;;;12.77;3.83;;;;;;;3.91;80.94;102550.88;4786391;60;1136522;-78
2021/03/01 00:50:29;;;;;;;15.57;5.23;;;;;;;3.88;81.07;102550.92;4783118;60;1136615;-80
2021/03/01 00:55:35;;;;;;;14.25;5.17;;;;;;;3.87;80.98;102550.50;4783573;60;1136531;-80
2021/03/01 01:00:41;;;;;;;14.70;4.93;;;;;;;3.83;81.06;102544.89;4782349;60;1136887;-79
2021/03/01 01:05:46;;;;;;;10.90;4.33;;;;;;;3.80;80.98;102543.22;4782571;60;1136273;-79
2021/03/01 01:10:52;;;;;;;14.18;4.30;;;;;;;3.73;81.15;102546.81;4784340;60;1136338;-78
2021/03/01 01:15:59;;;;;;;14.57;4.57;;;;;;;3.73;81.18;102548.56;4782739;59;1136356;-79
2021/03/01 01:21:05;;;;;;;17.67;6.60;;;;;;;3.71;81.31;102551.66;4787366;60;1136877;-79
2021/03/01 01:26:10;;;;;;;12.92;4.68;;;;;;;3.73;81.35;102546.81;4782415;60;1137147;-78
2021/03/01 01:31:16;;;;;;;14.00;4.90;;;;;;;3.75;81.23;102542.87;4783685;60;1137312;-79
2021/03/01 01:36:21;;;;;;;13.32;5.75;;;;;;;3.72;81.34;102545.09;4784710;60;1137022;-80
2021/03/01 01:41:28;;;;;;;13.27;6.13;;;;;;;3.76;81.37;102545.46;4781525;60;1138632;-79
2021/03/01 01:46:34;;;;;;;18.93;6.83;;;;;;;3.84;81.35;102548.80;4787599;60;1136171;-78
2021/03/01 01:51:45;;;;;;;14.93;6.40;;;;;;;3.88;81.38;102550.48;4786071;60;1136337;-80
2021/03/01 01:56:51;;;;;;;13.47;5.23;;;;;;;3.85;81.05;102545.73;4784967;60;1136167;-78
2021/03/01 02:01:59;;;;;;;16.37;7.23;;;;;;;3.77;81.04;102539.78;4780091;60;1136224;-79
2021/03/01 02:07:41;;;;;;;8.53;3.93;;;;;;;3.75;81.27;102546.80;4789882;60;1136378;-80
2021/03/01 02:12:54;;;;;;;10.00;5.40;;;;;;;3.72;81.11;102547.70;4683785;60;1134937;-80
2021/03/01 02:17:59;;;;;;;10.00;4.93;;;;;;;3.71;81.23;102552.95;4677691;61;1136622;-78
2021/03/01 02:23:05;;;;;;;12.70;4.55;;;;;;;3.72;81.37;102549.45;4669619;61;1137014;-80
2021/03/01 02:28:14;;;;;;;12.13;5.62;;;;;;;3.71;81.24;102545.97;4663896;61;1136665;-79
2021/03/01 02:33:27;;;;;;;20.77;7.13;;;;;;;3.66;81.32;102537.80;4677046;61;1136563;-79
2021/03/01 02:38:36;;;;;;;16.23;6.53;;;;;;;3.66;81.41;102537.36;4677496;61;1136484;-79
2021/03/01 02:43:43;;;;;;;16.77;6.50;;;;;;;3.64;81.38;102538.27;4676057;61;1137042;-80
2021/03/01 02:48:50;;;;;;;20.30;6.70;;;;;;;3.63;81.46;102540.46;4723684;59;1136408;-80
2021/03/01 02:53:59;;;;;;;9.47;4.83;;;;;;;3.68;81.56;102535.55;4807433;59;1136342;-79
2021/03/01 02:59:06;;;;;;;12.20;4.53;;;;;;;3.68;81.47;102538.17;4803233;59;1134218;-79
2021/03/01 03:04:13;;;;;;;8.65;3.50;;;;;;;3.70;81.38;102543.38;4799767;59;1136858;-80
2021/03/01 03:09:20;;;;;;;13.32;6.78;;;;;;;3.64;81.60;102533.90;4771373;60;1134981;-80
2021/03/01 03:14:28;;;;;;;8.80;4.60;;;;;;;3.61;81.48;102529.16;4802846;59;1137069;-80
2021/03/01 03:19:33;;;;;;;13.27;6.03;;;;;;;3.58;81.64;102527.45;4793472;59;1134818;-80
2021/03/01 03:24:40;;;;;;;15.50;6.00;;;;;;;3.60;81.64;102528.29;4783242;60;1137077;-80
2021/03/01 03:29:45;;;;;;;13.07;6.37;;;;;;;3.57;81.71;102542.72;4784098;60;1136993;-79
2021/03/01 03:34:51;;;;;;;17.87;6.57;;;;;;;3.58;81.85;102540.53;4780462;60;1136828;-80
2021/03/01 03:39:59;;;;;;;8.50;4.20;;;;;;;3.60;81.73;102543.98;4784384;60;1137074;-80
2021/03/01 03:45:08;;;;;;;17.60;7.07;;;;;;;3.62;81.84;102538.29;4782678;60;1134867;-79
2021/03/01 03:50:14;;;;;;;10.38;5.20;;;;;;;3.57;81.74;102540.55;4784996;60;1136872;-80
2021/03/01 03:55:22;;;;;;;14.93;5.30;;;;;;;3.58;81.81;102541.84;4784590;60;1136867;-78
2021/03/01 04:00:32;;;;;;;13.00;5.80;;;;;;;3.52;81.93;102545.84;4781552;60;1137063;-79
2021/03/01 04:05:42;;;;;;;14.90;6.42;;;;;;;3.56;81.96;102548.84;4779705;60;1136633;-80
2021/03/01 04:10:52;;;;;;;15.50;6.08;;;;;;;3.55;82.05;102540.57;4784476;60;1136352;-78
2021/03/01 04:15:59;;;;;;;14.93;7.20;;;;;;;3.59;81.93;102544.87;4786053;60;1136533;-79
2021/03/01 04:21:11;;;;;;;20.87;7.33;;;;;;;3.64;81.92;102547.42;4796420;59;1138702;-79
2021/03/01 04:26:17;;;;;;;15.25;5.22;;;;;;;3.62;81.93;102548.75;4820551;59;1136578;-81
2021/03/01 04:31:24;;;;;;;15.37;6.60;;;;;;;3.49;82.05;102538.94;4820929;59;1136495;-79
2021/03/01 04:36:30;;;;;;;20.03;11.17;;;;;;;3.49;82.05;102538.94;4793541;59;1136467;-79
2021/03/01 04:41:38;;;;;;;26.20;11.30;;;;;;;3.51;82.17;102548.07;4820511;59;1138930;-80
2021/03/01 04:46:47;;;;;;;31.10;11.47;;;;;;;3.50;82.18;102556.81;4820540;59;1138454;-79
2021/03/01 04:51:54;;;;;;;23.60;11.03;;;;;;;3.51;82.24;102564.60;4820382;59;1138898;-79
2021/03/01 04:57:00;;;;;;;14.17;9.27;;;;;;;3.49;82.25;102565.09;4820353;59;1138482;-79
2021/03/01 05:02:10;;;;;;;23.87;11.18;;;;;;;3.56;82.27;102571.52;4813501;59;1138899;-80
2021/03/01 05:07:17;;;;;;;25.40;13.30;;;;;;;3.48;82.30;102572.97;4820212;59;1138641;-79
2021/03/01 05:12:25;;;;;;;33.10;14.85;;;;;;;3.48;82.24;102563.37;4820690;59;1138432;-81
2021/03/01 05:17:30;;;;;;;21.85;10.45;;;;;;;3.47;82.35;102568.17;4820662;59;1138430;-80
2021/03/01 05:22:36;;;;;;;27.43;12.50;;;;;;;3.48;82.38;102576.45;4826186;59;1138522;-80
2021/03/01 05:27:41;;;;;;;30.27;13.90;;;;;;;3.45;82.42;102585.64;4842816;59;1138513;-79
2021/03/01 05:32:47;;;;;;;26.47;14.40;;;;;;;3.40;82.50;102580.05;4842775;59;1138439;-79
2021/03/01 05:37:52;;;;;;;26.93;11.67;;;;;;;3.36;82.54;102581.84;4842752;59;1138377;-80
2021/03/01 05:42:59;;;;;;;32.57;16.77;;;;;;;3.40;82.75;102583.53;4842558;59;1140691;-80
2021/03/01 05:48:07;;;;;;;22.77;10.23;;;;;;;3.38;82.67;102578.76;4838431;59;1138748;-78
2021/03/01 05:53:18;;;;;;;37.40;16.47;;;;;;;3.36;82.94;102579.22;4841820;60;1138839;-78
2021/03/01 05:58:25;;;;;;;18.07;8.50;;;;;;;3.34;82.80;102582.77;4841588;59;1138565;-78
2021/03/01 06:03:38;;;;;;;31.80;18.37;;;;;;;3.34;83.05;102584.95;4813107;60;1136281;-77
2021/03/01 06:08:43;;;;;;;16.13;7.47;;;;;;;3.33;82.81;102596.73;4849211;60;1138849;-79
2021/03/01 06:13:50;;;;;;;33.63;14.33;;;;;;;3.33;82.81;102589.75;4848465;60;1136552;-80
2021/03/01 06:18:57;;;;;;;34.20;13.57;;;;;;;3.33;82.81;102589.75;4702699;61;1138436;-79
2021/03/01 06:24:04;;;;;;;25.23;13.30;;;;;;;3.33;82.81;102599.34;4739813;61;1138744;-79
2021/03/01 06:29:10;;;;;;;30.65;16.23;;;;;;;3.33;82.86;102603.27;4672783;61;1138937;-80
2021/03/01 06:50:53;;;;;;;23.77;12.73;;;;;;;3.27;83.12;102624.27;5100804;56;1134896;-73
2021/03/01 06:56:05;;;;;;;21.23;11.47;;;;;;;3.28;83.19;102617.71;5094339;56;1138928;-73
2021/03/01 07:01:24;;;;;;;29.27;15.30;;;;;;;3.22;83.35;102618.22;5096268;56;1138907;-74
2021/03/01 07:06:35;;;;;;;37.93;16.43;;;;;;;3.23;83.35;102630.41;5099255;56;1138976;-71
2021/03/01 07:11:41;;;;;;;32.17;14.83;;;;;;;3.24;83.42;102634.31;5091433;56;1145881;-70
2021/03/01 07:17:00;;;;;;;33.10;12.55;;;;;;;3.29;83.42;102643.42;5090992;56;1138874;-70
2021/03/01 07:22:08;;;;;;;48.30;24.43;;;;;;;3.22;83.41;102658.75;5097564;56;1138824;-71
2021/03/01 07:27:16;;;;;;;40.67;18.17;;;;;;;3.18;83.49;102666.66;5107482;56;1140556;-70
2021/03/01 07:32:25;;;;;;;39.63;18.17;;;;;;;3.17;83.44;102670.60;5082434;56;1138374;-69
2021/03/01 07:37:30;;;;;;;30.43;10.83;;;;;;;3.12;83.40;102669.78;5082211;57;1138755;-70
2021/03/01 07:42:40;;;;;;;39.10;18.37;;;;;;;3.12;83.61;102671.09;5082042;57;1138608;-70
2021/03/01 07:47:45;;;;;;;75.87;32.03;;;;;;;3.08;83.60;102669.39;5076565;57;1138910;-70
2021/03/01 07:52:51;;;;;;;30.10;15.15;;;;;;;3.08;83.75;102664.16;4983937;58;1138959;-71
2021/03/01 07:58:06;;;;;;;41.10;20.08;;;;;;;3.13;83.79;102660.61;4964404;58;1138842;-70
2021/03/01 08:03:37;;;;;;;46.97;21.20;;;;;;;3.04;83.67;102660.74;4962342;58;1138630;-70
2021/03/01 08:08:51;;;;;;;42.47;21.70;;;;;;;3.02;83.79;102656.41;4975426;58;1138860;-71
2021/03/01 08:13:56;;;;;;;35.90;14.50;;;;;;;3.08;84.08;102655.01;4975706;58;1138695;-70
2021/03/01 08:19:02;;;;;;;30.30;11.67;;;;;;;3.13;84.23;102655.83;4974700;58;1138816;-70
2021/03/01 08:24:45;;;;;;;106.73;43.23;;;;;;;3.10;84.04;102664.57;4970448;58;1138594;-70
2021/03/01 08:30:26;;;;;;;32.67;10.97;;;;;;;3.08;84.00;102663.72;4967745;58;1140606;-70
2021/03/01 08:35:33;;;;;;;24.57;9.13;;;;;;;3.11;84.30;102663.69;4938876;57;1138886;-70
2021/03/01 08:40:56;;;;;;;42.10;15.14;;;;;;;3.08;84.43;102662.85;5033375;57;1136721;-71
2021/03/01 08:46:02;;;;;;;19.73;7.33;;;;;;;3.09;84.47;102669.38;5003142;57;1138698;-70
2021/03/01 08:51:13;;;;;;;20.87;7.73;;;;;;;3.10;84.50;102676.33;5004846;57;1136639;-70
2021/03/01 08:56:22;;;;;;;41.00;16.85;;;;;;;3.14;84.97;102675.86;4993370;57;1136843;-72
2021/03/01 09:01:28;;;;;;;65.50;23.67;;;;;;;3.15;84.63;102679.77;4969337;57;1138876;-71
2021/03/01 09:06:33;;;;;;;52.57;18.03;;;;;;;3.17;84.62;102681.92;4971534;57;1138682;-71
2021/03/01 09:11:38;;;;;;;40.07;13.57;;;;;;;3.23;84.74;102687.94;4975774;58;1138840;-71
2021/03/01 09:16:44;;;;;;;37.10;21.07;;;;;;;3.23;84.74;102683.58;4955048;58;1138713;-73
2021/03/01 09:21:54;;;;;;;34.00;9.07;;;;;;;3.28;84.96;102689.62;4907688;58;1138662;-71
2021/03/01 09:27:00;;;;;;;26.30;12.97;;;;;;;3.33;84.99;102696.12;4958684;56;1136731;-71
2021/03/01 09:32:05;;;;;;;33.07;9.27;;;;;;;3.30;84.90;102705.30;4628540;60;1139122;-72
2021/03/01 09:37:11;;;;;;;22.90;9.57;;;;;;;3.29;84.97;102707.48;4750436;61;1136839;-75
2021/03/01 09:42:19;;;;;;;24.83;9.67;;;;;;;3.24;84.68;102710.16;4736799;60;1136634;-74
2021/03/01 09:47:25;;;;;;;34.20;11.57;;;;;;;3.23;84.72;102720.63;4639604;61;1136646;-75
2021/03/01 09:52:30;;;;;;;36.10;12.17;;;;;;;3.26;84.77;102720.16;4632696;62;1138977;-77
2021/03/01 09:57:36;;;;;;;30.77;12.80;;;;;;;3.31;84.83;102716.19;4720872;58;1139131;-75
2021/03/01 10:02:42;;;;;;;35.90;13.80;;;;;;;3.38;85.01;102721.30;4784500;59;1139065;-79
2021/03/01 10:08:00;;;;;;;29.67;13.47;;;;;;;3.42;84.64;102729.55;4910103;58;1138604;-77
2021/03/01 10:13:08;;;;;;;43.77;17.50;;;;;;;3.48;84.76;102726.00;4899551;58;1138490;-82
2021/03/01 10:18:16;;;;;;;26.20;9.87;;;;;;;3.43;84.56;102730.41;4895353;59;1138848;-80
2021/03/01 10:23:37;;;;;;;29.42;12.73;;;;;;;3.38;84.66;102743.54;4889716;58;1136467;-82
2021/03/01 10:28:59;;;;;;;28.83;11.70;;;;;;;3.35;84.48;102745.34;4887459;58;1138635;-77
2021/03/01 10:34:10;;;;;;;34.87;15.43;;;;;;;3.30;84.59;102748.01;4928778;58;1138332;-79
2021/03/01 10:39:37;;;;;;;34.67;13.50;;;;;;;3.34;84.74;102744.48;4953655;58;1138926;-77
2021/03/01 10:44:46;;;;;;;46.00;16.82;;;;;;;3.36;84.56;102747.08;4915384;58;1138841;-80
2021/03/01 10:50:04;;;;;;;32.08;15.35;;;;;;;3.33;84.77;102745.36;4898370;58;1138944;-75
2021/03/01 10:55:10;;;;;;;28.43;15.73;;;;;;;3.36;84.65;102748.39;4927863;58;1138535;-83
2021/03/01 11:00:17;;;;;;;31.50;11.30;;;;;;;3.39;84.58;102743.09;4992195;58;1138935;-88
2021/03/01 11:05:23;;;;;;;29.48;11.12;;;;;;;3.41;84.29;102730.42;4988587;57;1138926;-83
2021/03/01 11:10:29;;;;;;;17.30;8.80;;;;;;;3.38;84.18;102732.21;4985456;58;1138958;-76
2021/03/01 11:15:34;;;;;;;23.00;10.90;;;;;;;3.37;84.25;102735.27;4989382;57;1137071;-74
2021/03/01 11:20:40;;;;;;;25.17;12.70;;;;;;;3.36;84.14;102722.23;4983555;58;1139127;-76
2021/03/01 11:25:45;;;;;;;46.33;17.10;;;;;;;3.37;84.20;102726.11;4988134;58;1143269;-80
2021/03/01 11:30:51;;;;;;;56.50;21.37;;;;;;;3.38;84.35;102721.30;4989121;58;1138831;-77
2021/03/01 11:35:56;;;;;;;42.90;14.73;;;;;;;3.44;84.31;102709.91;4986356;58;1142064;-78
2021/03/01 11:41:03;;;;;;;41.17;14.87;;;;;;;3.48;84.21;102710.30;4998766;57;1138600;-82
2021/03/01 11:46:10;;;;;;;62.33;19.80;;;;;;;3.53;84.02;102711.09;4984457;57;1139185;-85
2021/03/01 11:51:16;;;;;;;36.87;12.93;;;;;;;3.52;83.96;102706.73;4947520;57;1138993;-78
2021/03/01 11:56:22;;;;;;;58.50;20.53;;;;;;;3.54;84.06;102699.30;4906725;59;1138893;-77
2021/03/01 12:01:27;;;;;;;41.30;12.30;;;;;;;3.58;84.15;102703.19;4978545;58;1139327;-83
2021/03/01 12:06:33;;;;;;;38.33;14.03;;;;;;;3.59;84.32;102715.38;4978044;58;1138879;-77
2021/03/01 12:11:38;;;;;;;88.07;29.17;;;;;;;3.55;84.27;102708.01;4931518;58;1139152;-81
2021/03/01 12:16:44;;;;;;;66.80;17.47;;;;;;;3.60;84.28;102707.95;4980244;58;1138756;-81
2021/03/01 12:21:49;;;;;;;48.30;15.78;;;;;;;3.68;84.38;102706.08;4980497;58;1138398;-82
2021/03/01 12:26:55;;;;;;;61.23;17.13;;;;;;;3.75;84.22;102690.28;4980435;58;1138450;-80
2021/03/01 12:32:00;;;;;;;52.73;21.20;;;;;;;3.81;84.35;102699.38;4980483;58;1139295;-78
2021/03/01 12:37:06;;;;;;;37.20;15.93;;;;;;;3.92;84.21;102689.17;4980000;58;1138687;-78
2021/03/01 12:42:12;;;;;;;38.20;17.70;;;;;;;3.95;84.01;102689.13;4978957;58;1138733;-78
2021/03/01 12:47:18;;;;;;;27.00;12.07;;;;;;;3.96;83.92;102686.94;4956864;57;1138616;-77
2021/03/01 12:52:23;;;;;;;27.27;11.40;;;;;;;3.96;83.89;102675.16;4979684;58;1138408;-82
2021/03/01 12:57:28;;;;;;;25.80;11.00;;;;;;;3.96;83.81;102685.62;4959144;58;1138544;-80
2021/03/01 13:02:34;;;;;;;23.43;11.43;;;;;;;3.99;83.93;102680.31;4956984;58;1138889;-83
2021/03/01 13:07:40;;;;;;;27.47;15.07;;;;;;;4.09;83.84;102676.24;4961565;58;1138550;-78
2021/03/01 13:12:46;;;;;;;25.53;12.30;;;;;;;4.19;83.92;102669.95;4961478;59;1140905;-82
2021/03/01 13:17:51;;;;;;;24.92;14.83;;;;;;;4.22;83.05;102669.04;4975845;57;1138850;-81
2021/03/01 13:22:57;;;;;;;24.55;11.08;;;;;;;4.20;83.04;102665.58;4857559;58;1138678;-80
2021/03/01 13:28:03;;;;;;;29.50;15.55;;;;;;;4.21;82.85;102665.56;4810893;59;1138759;-77
2021/03/01 13:33:08;;;;;;;30.77;16.73;;;;;;;4.27;82.97;102662.42;4848273;58;1138961;-91
2021/03/01 13:38:14;;;;;;;33.97;17.37;;;;;;;4.31;82.83;102657.08;4856453;58;1138595;-82
2021/03/01 13:43:19;;;;;;;37.95;18.27;;;;;;;4.36;82.75;102656.56;4853195;59;1138591;-79
2021/03/01 13:48:25;;;;;;;39.13;19.57;;;;;;;4.42;82.67;102651.67;4846089;59;1140702;-76
2021/03/01 13:53:30;;;;;;;32.93;17.77;;;;;;;4.44;82.64;102645.94;4793078;60;1139002;-86
2021/03/01 13:58:36;;;;;;;28.00;16.27;;;;;;;4.45;82.52;102639.36;4889602;59;1138615;-77
2021/03/01 14:03:41;;;;;;;47.30;16.73;;;;;;;4.43;82.13;102642.45;4792913;60;1138610;-80
2021/03/01 14:08:47;;;;;;;36.25;17.90;;;;;;;4.41;82.13;102637.71;4889696;59;1138796;-80
2021/03/01 14:13:52;;;;;;;40.67;21.33;;;;;;;4.42;82.15;102643.81;4814059;59;1138471;-76
2021/03/01 14:19:00;;;;;;;38.77;25.47;;;;;;;4.45;82.07;102638.49;4793061;60;1138464;-79
2021/03/01 14:24:07;;;;;;;60.60;25.13;;;;;;;4.43;82.01;102637.20;4889647;58;1138511;-76
2021/03/01 14:29:12;;;;;;;29.87;18.70;;;;;;;4.45;82.04;102628.02;4792819;60;1138388;-78
2021/03/01 14:34:18;;;;;;;28.80;13.10;;;;;;;4.43;81.89;102621.97;4861875;58;1138485;-79
2021/03/01 14:39:23;;;;;;;41.17;15.43;;;;;;;4.45;81.76;102618.40;4808556;59;1138576;-86
2021/03/01 14:44:29;;;;;;;54.00;17.57;;;;;;;4.39;82.13;102606.74;4816458;59;1139030;-76
2021/03/01 14:49:34;;;;;;;25.10;12.98;;;;;;;4.39;82.14;102617.67;4861729;60;1138933;-83
2021/03/01 14:54:40;;;;;;;26.43;15.90;;;;;;;4.39;82.17;102614.61;4884418;58;1138667;-89
2021/03/01 14:59:45;;;;;;;43.93;17.03;;;;;;;4.44;82.23;102614.50;4790884;60;1209915;-79
2021/03/01 15:04:50;;;;;;;247.53;92.73;;;;;;;4.43;82.05;102612.80;4803724;59;1138672;-78
2021/03/01 15:09:56;;;;;;;55.80;28.20;;;;;;;4.44;82.08;102613.19;4743992;60;1140992;-77
2021/03/01 15:15:01;;;;;;;76.70;32.88;;;;;;;4.47;82.18;102607.45;4744922;60;1139065;-80
2021/03/01 15:20:09;;;;;;;26.00;13.50;;;;;;;4.51;82.19;102611.75;4743698;60;1138662;-81
2021/03/01 15:25:15;;;;;;;34.17;18.73;;;;;;;4.52;81.93;102614.78;4744107;60;1140505;-82
2021/03/01 15:30:22;;;;;;;47.03;19.70;;;;;;;4.50;82.03;102623.56;4744023;60;1138624;-79
2021/03/01 15:35:28;;;;;;;53.90;21.47;;;;;;;4.52;81.98;102619.16;4823597;59;1141170;-83
2021/03/01 15:40:33;;;;;;;18.43;10.33;;;;;;;4.53;81.96;102621.75;4814675;59;1138598;-80
2021/03/01 15:45:39;;;;;;;21.87;10.43;;;;;;;4.51;81.86;102618.30;4802143;60;1138745;-81
2021/03/01 15:50:44;;;;;;;20.47;10.40;;;;;;;4.48;81.82;102620.97;4801690;60;1140882;-86
2021/03/01 15:55:52;;;;;;;32.93;16.27;;;;;;;4.43;81.83;102624.11;4802480;60;1138669;-84
2021/03/01 16:00:57;;;;;;;29.00;13.25;;;;;;;4.40;81.93;102621.58;4843989;58;1138605;-81
2021/03/01 16:06:03;;;;;;;21.77;10.80;;;;;;;4.39;81.90;102618.53;4916209;58;1148472;-85
2021/03/01 16:11:09;;;;;;;32.13;13.53;;;;;;;4.34;82.13;102624.73;4981585;57;1138533;-80
2021/03/01 16:16:14;;;;;;;42.90;19.10;;;;;;;4.27;82.08;102613.52;4981532;57;1138462;-85
2021/03/01 16:21:21;;;;;;;42.60;19.47;;;;;;;4.28;82.14;102613.91;5013103;57;1139300;-80
2021/03/01 16:26:27;;;;;;;62.50;26.40;;;;;;;4.29;82.18;102602.55;4993820;57;1139124;-81
2021/03/01 16:31:32;;;;;;;36.90;20.40;;;;;;;4.24;82.13;102603.09;4976990;58;1138864;-78
2021/03/01 16:36:38;;;;;;;34.33;15.53;;;;;;;4.22;82.29;102597.02;4977513;58;1139046;-82
2021/03/01 16:41:44;;;;;;;35.70;16.10;;;;;;;4.19;82.30;102603.17;4977597;58;1138391;-84
2021/03/01 16:46:57;;;;;;;54.50;25.27;;;;;;;4.13;82.13;102600.64;4980077;57;1138608;-82
2021/03/01 16:52:04;;;;;;;307.43;159.00;;;;;;;4.08;82.08;102592.03;4982864;57;1138457;-81
2021/03/01 16:57:10;;;;;;;174.37;94.63;;;;;;;4.05;82.08;102586.84;4982560;57;1143035;-82
2021/03/01 17:02:19;;;;;;;52.35;23.55;;;;;;;4.07;81.97;102598.59;4982464;57;1142563;-83
2021/03/01 17:07:28;;;;;;;48.53;22.50;;;;;;;4.05;81.90;102597.31;4990624;57;1138566;-87
2021/03/01 17:13:02;;;;;;;94.60;37.60;;;;;;;4.03;81.86;102600.40;5001899;57;1138387;-84
2021/03/01 17:18:08;;;;;;;85.10;37.43;;;;;;;4.02;81.87;102604.34;5001327;57;1138361;-85
2021/03/01 17:23:14;;;;;;;186.97;75.83;;;;;;;4.02;82.09;102603.91;4996909;57;1138393;-84
2021/03/01 17:28:21;;;;;;;160.90;66.87;;;;;;;4.01;81.85;102613.09;5001391;57;1141070;-79
2021/03/01 17:33:28;;;;;;;162.93;60.47;;;;;;;4.04;81.56;102609.98;5001815;57;1140444;-86
2021/03/01 17:38:34;;;;;;;163.40;62.83;;;;;;;4.08;81.26;102606.88;5001606;57;1142931;-85
2021/03/01 17:43:40;;;;;;;262.97;94.37;;;;;;;4.09;81.30;102608.16;5001618;57;1140648;-84
2021/03/01 17:48:56;;;;;;;184.67;110.97;;;;;;;4.07;81.07;102599.91;5001620;57;1140765;-89
2021/03/01 17:54:14;;;;;;;136.80;73.80;;;;;;;3.99;80.84;102597.41;4985595;56;1143564;-83
2021/03/01 17:59:29;;;;;;;370.37;200.03;;;;;;;3.87;80.56;102596.31;4935309;59;1141384;-82
2021/03/01 18:04:40;;;;;;;301.07;143.93;;;;;;;3.74;80.38;102595.66;4935205;59;1143556;-76
2021/03/01 18:09:46;;;;;;;269.00;145.47;;;;;;;3.73;80.68;102599.59;4935060;59;1145375;-81
2021/03/01 18:14:53;;;;;;;370.13;164.90;;;;;;;3.71;80.82;102597.00;4935792;59;1143323;-85
2021/03/01 18:20:00;;;;;;;481.93;190.43;;;;;;;3.71;81.03;102598.75;4935874;59;1143513;-80
2021/03/01 18:25:09;;;;;;;315.62;112.28;;;;;;;3.67;81.01;102595.31;4935437;59;1143112;-81
2021/03/01 18:30:15;;;;;;;244.40;84.90;;;;;;;3.60;80.83;102589.77;4935704;59;1143105;-82
2021/03/01 18:35:22;;;;;;;126.77;53.17;;;;;;;3.61;80.49;102601.11;4935584;59;1141017;-84
2021/03/01 18:40:36;;;;;;;128.97;52.80;;;;;;;3.60;80.25;102595.01;4935567;59;1143077;-86
2021/03/01 18:45:43;;;;;;;324.73;111.97;;;;;;;3.60;80.50;102601.98;4935666;58;1141027;-90
2021/03/01 18:50:53;;;;;;;488.07;131.85;;;;;;;3.56;80.55;102599.86;4935479;59;1143131;-81
2021/03/01 18:56:00;;;;;;;198.45;71.92;;;;;;;3.46;80.33;102592.61;5044367;58;1143343;-83
2021/03/01 19:01:06;;;;;;;274.18;144.95;;;;;;;3.38;80.34;102604.91;5029810;57;1141150;-84
2021/03/01 19:06:13;;;;;;;150.97;82.67;;;;;;;3.32;80.18;102599.80;5029585;58;1143239;-85
2021/03/01 19:11:20;;;;;;;192.87;97.07;;;;;;;3.35;80.34;102604.12;5015028;57;1143286;-83
2021/03/01 19:16:26;;;;;;;813.50;351.83;;;;;;;3.35;80.22;102610.22;4835822;58;1140500;-81
2021/03/01 19:21:31;;;;;;;684.60;325.93;;;;;;;3.33;80.27;102603.27;4920810;58;1143087;-83
2021/03/01 19:26:36;;;;;;;526.83;239.83;;;;;;;3.27;79.98;102604.66;4906135;59;1142839;-77
2021/03/01 19:31:42;;;;;;;398.67;159.10;;;;;;;3.13;79.58;102614.86;4992623;57;1142857;-79
2021/03/01 19:36:49;;;;;;;330.40;122.57;;;;;;;3.00;79.14;102611.12;5009120;58;1142990;-76
2021/03/01 19:41:54;;;;;;;323.83;127.77;;;;;;;3.00;79.14;102611.12;4988274;58;1143243;-77
2021/03/01 19:47:00;;;;;;;509.90;237.40;;;;;;;2.94;79.56;102609.44;4987743;58;1143173;-77
2021/03/01 19:52:08;;;;;;;478.65;210.60;;;;;;;2.89;79.74;102604.73;5018083;58;1143091;-77
2021/03/01 19:57:14;;;;;;;388.93;140.33;;;;;;;2.80;79.53;102612.67;5034772;57;1143068;-75
2021/03/01 20:02:21;;;;;;;145.53;55.77;;;;;;;2.73;79.29;102607.98;5044817;57;1143117;-75
2021/03/01 20:07:26;;;;;;;107.53;46.87;;;;;;;2.59;78.92;102597.27;4900884;58;1141048;-75
2021/03/01 20:12:32;;;;;;;250.17;99.87;;;;;;;2.40;79.22;102601.81;4872154;59;1141270;-75
2021/03/01 20:17:38;;;;;;;165.03;74.87;;;;;;;2.20;79.67;102594.61;4915532;59;1140544;-77
2021/03/01 20:22:43;;;;;;;123.50;57.70;;;;;;;2.15;80.11;102601.17;4915719;59;1141000;-75
2021/03/01 20:27:49;;;;;;;116.43;53.83;;;;;;;2.10;80.34;102606.46;4841274;59;1140534;-76
2021/03/01 20:32:55;;;;;;;228.17;89.90;;;;;;;2.10;80.55;102609.51;5028625;57;1140968;-76
2021/03/01 20:38:01;;;;;;;203.60;82.40;;;;;;;2.07;80.61;102608.23;5039612;57;1140544;-75
2021/03/01 20:43:07;;;;;;;142.47;61.33;;;;;;;1.98;80.70;102607.88;5003330;57;1141096;-76
2021/03/01 20:48:12;;;;;;;117.60;53.77;;;;;;;2.00;80.93;102606.53;5007397;57;1141142;-75
2021/03/01 20:53:18;;;;;;;101.83;47.57;;;;;;;1.96;80.94;102617.91;5046980;57;1141387;-75
2021/03/01 20:58:23;;;;;;;258.53;94.53;;;;;;;1.93;81.30;102613.56;5102682;56;1141179;-75
2021/03/01 21:03:29;;;;;;;242.13;90.53;;;;;;;1.90;81.18;102615.33;5072703;57;1141161;-74
2021/03/01 21:08:34;;;;;;;166.33;69.00;;;;;;;1.91;81.35;102607.49;5011605;57;1141207;-76
2021/03/01 21:13:40;;;;;;;530.97;193.47;;;;;;;1.92;81.24;102600.09;5011561;57;1141086;-77
2021/03/01 21:18:49;;;;;;;323.50;132.40;;;;;;;1.91;81.31;102606.19;5011282;57;1143059;-73
2021/03/01 21:23:56;;;;;;;224.95;91.15;;;;;;;1.85;81.56;102604.92;5011202;57;1143334;-74
2021/03/01 21:29:03;;;;;;;160.37;66.07;;;;;;;1.79;81.58;102605.43;5011668;58;1141054;-75
2021/03/01 21:34:09;;;;;;;91.53;37.23;;;;;;;1.72;81.63;102601.98;5011741;58;1140983;-76
2021/03/01 21:39:15;;;;;;;217.17;67.80;;;;;;;1.69;81.99;102596.79;5011560;58;1138684;-74
2021/03/01 21:44:22;;;;;;;88.20;35.93;;;;;;;1.63;82.16;102592.50;5007923;57;1141215;-75
2021/03/01 21:49:32;;;;;;;92.83;38.27;;;;;;;1.63;82.37;102587.73;5011472;57;1138601;-74
2021/03/01 21:54:40;;;;;;;214.67;69.00;;;;;;;1.57;82.57;102580.80;5011336;57;1138524;-77
2021/03/01 21:59:47;;;;;;;89.07;40.73;;;;;;;1.53;82.72;102572.56;5011637;57;1140639;-75
2021/03/01 22:05:03;;;;;;;79.70;35.53;;;;;;;1.57;82.86;102576.02;4961695;57;1224443;-77
2021/03/01 22:10:09;;;;;;;102.47;45.00;;;;;;;1.59;82.97;102577.75;4921500;58;1138592;-76
2021/03/01 22:15:22;;;;;;;118.73;43.73;;;;;;;1.60;83.04;102586.44;4953782;58;1141222;-74
2021/03/01 22:20:28;;;;;;;99.50;45.33;;;;;;;1.61;82.94;102583.82;4917474;58;1140963;-77
2021/03/01 22:25:34;;;;;;;101.67;44.43;;;;;;;1.63;82.81;102583.81;4917647;58;1138828;-74
2021/03/01 22:30:49;;;;;;;84.57;40.27;;;;;;;1.67;82.74;102581.18;4917317;58;1140625;-75
2021/03/01 22:35:57;;;;;;;95.20;45.87;;;;;;;1.68;82.82;102591.17;4968156;58;1148948;-77
2021/03/01 22:41:05;;;;;;;105.95;48.45;;;;;;;1.63;82.89;102591.64;4972164;58;1138867;-75
2021/03/01 22:46:13;;;;;;;113.67;49.47;;;;;;;1.67;82.96;102598.57;4980978;58;1141033;-76
2021/03/01 22:51:19;;;;;;;135.70;61.63;;;;;;;1.73;82.74;102594.59;5019538;57;1141251;-74
2021/03/01 22:56:26;;;;;;;148.27;68.43;;;;;;;1.80;82.89;102596.72;5019118;58;1141053;-76
2021/03/01 23:01:33;;;;;;;159.17;78.00;;;;;;;1.87;82.95;102594.47;5019328;56;1141055;-74
2021/03/01 23:06:39;;;;;;;126.87;65.60;;;;;;;1.89;82.68;102590.98;5102595;56;1141211;-76
2021/03/01 23:11:50;;;;;;;138.80;67.77;;;;;;;1.86;81.83;102592.30;5102226;57;1140950;-77
2021/03/01 23:16:58;;;;;;;156.00;71.67;;;;;;;1.74;81.54;102589.80;5102161;57;1141226;-76
2021/03/01 23:22:10;;;;;;;144.68;64.90;;;;;;;1.73;81.97;102585.46;5102379;57;1141131;-74